Angora, Minnesota
Current Conditions -  °F | °C
As of 10:35 AM on Thursday 29 Jan 2015 (Local Time) from KCQM Reporting Station
Light Snow Light Snow  
Wind Chill:   Ceiling: 1400
Heat Index: 16°   Visibility: 1.7mi
Dew Point: 12°   Wind: 14mph
Humidity: 86%   Direction: 290°WNW
Pressure: 30.18"   Gusts: 22mph
Location:  47.77°N, 92.63°W
Report Text: KCQM 291635Z AUTO 29012G19KT 1 3/4SM -SN OVC014 M09/M11 A3018 RMK AO2
Loading
Personal Weather Stations






























Interactive Weather Map New forecast layout! Learn more

10-Day Weather Forecast

Advertisements
Track Severe Weather on mobile